createdAt,value
2018-09-06T00:00:35.663Z,4.00
2018-09-06T00:01:02.445Z,4.00
2018-09-06T00:02:02.426Z,4.00
2018-09-06T00:03:02.415Z,4.00
2018-09-06T00:05:34.752Z,4.00
2018-09-06T00:06:01.526Z,4.00
2018-09-06T00:07:34.729Z,4.00
2018-09-06T00:08:01.502Z,4.00
2018-09-06T00:09:01.483Z,4.00
2018-09-06T00:10:01.468Z,4.00
2018-09-06T00:11:34.662Z,4.00
2018-09-06T00:12:01.441Z,4.00
2018-09-06T00:13:01.438Z,4.00
2018-09-06T00:14:01.407Z,4.00
2018-09-06T00:15:01.396Z,4.00
2018-09-06T00:16:01.385Z,4.00
2018-09-06T00:17:01.367Z,4.00
2018-09-06T00:18:01.358Z,4.00
2018-09-06T00:19:34.545Z,4.00
2018-09-06T00:20:01.321Z,4.00
2018-09-06T00:21:01.312Z,4.00
2018-09-06T00:22:01.288Z,4.00
2018-09-06T00:24:05.090Z,4.00
2018-09-06T00:25:05.064Z,4.00
2018-09-06T00:26:05.050Z,4.00
2018-09-06T00:27:39.257Z,4.00
2018-09-06T00:29:34.224Z,4.00
2018-09-06T00:30:34.216Z,4.00
2018-09-06T00:31:34.191Z,4.00
2018-09-06T00:33:07.391Z,4.00
2018-09-06T00:33:34.160Z,4.00
2018-09-06T00:34:34.145Z,4.00
2018-09-06T00:35:34.129Z,4.00
2018-09-06T00:37:07.324Z,4.00
2018-09-06T00:37:34.099Z,4.00
2018-09-06T00:38:34.085Z,4.00
2018-09-06T00:39:34.219Z,4.00
2018-09-06T00:40:34.055Z,4.00
2018-09-06T00:41:34.040Z,4.00
2018-09-06T00:42:34.040Z,4.00
2018-09-06T00:44:23.542Z,4.00
2018-09-06T00:45:23.528Z,4.00
2018-09-06T00:46:23.650Z,4.00
2018-09-06T00:47:56.706Z,4.00
2018-09-06T00:48:23.479Z,4.00
2018-09-06T00:49:23.651Z,4.00
2018-09-06T00:50:23.450Z,4.00
2018-09-06T00:51:56.647Z,4.00
2018-09-06T00:52:23.419Z,4.00
2018-09-06T00:53:23.406Z,4.00
2018-09-06T00:54:23.390Z,4.00
2018-09-06T00:55:23.378Z,4.00
2018-09-06T00:56:23.363Z,4.00
2018-09-06T00:57:23.345Z,4.00
2018-09-06T00:58:23.337Z,4.00
2018-09-06T00:59:56.527Z,4.00
2018-09-06T01:00:23.304Z,4.00
2018-09-06T01:03:09.014Z,4.00
2018-09-06T01:04:08.983Z,4.00
2018-09-06T01:05:08.957Z,4.00
2018-09-06T01:06:42.155Z,4.00
2018-09-06T01:07:08.926Z,4.00
2018-09-06T01:08:08.917Z,4.00
2018-09-06T01:09:08.897Z,4.00
2018-09-06T01:10:08.883Z,4.00
2018-09-06T01:11:08.867Z,4.00
2018-09-06T01:12:08.853Z,4.00
2018-09-06T01:13:08.838Z,4.00
2018-09-06T01:14:08.825Z,4.00
2018-09-06T01:15:08.856Z,4.00
2018-09-06T01:16:08.794Z,4.00
2018-09-06T01:17:08.786Z,4.00
2018-09-06T01:18:08.763Z,4.00
2018-09-06T01:19:08.750Z,4.00
2018-09-06T01:20:08.734Z,4.00
2018-09-06T01:21:08.725Z,4.00
2018-09-06T01:23:54.404Z,4.00
2018-09-06T01:24:54.397Z,4.00
2018-09-06T01:25:54.373Z,4.00
2018-09-06T01:27:27.569Z,4.00
2018-09-06T01:27:54.354Z,4.00
2018-09-06T01:28:54.332Z,4.00
2018-09-06T01:29:54.313Z,4.00
2018-09-06T01:30:54.321Z,4.00
2018-09-06T01:31:54.285Z,4.00
2018-09-06T01:32:54.273Z,4.00
2018-09-06T01:33:54.256Z,4.00
2018-09-06T01:34:54.241Z,4.00
2018-09-06T01:35:54.233Z,4.00
2018-09-06T01:36:54.210Z,4.00
2018-09-06T01:37:54.195Z,4.00
2018-09-06T01:38:54.179Z,4.00
2018-09-06T01:40:27.377Z,4.00
2018-09-06T01:40:54.146Z,4.00
2018-09-06T01:43:38.982Z,4.00
2018-09-06T01:44:38.975Z,4.00
2018-09-06T01:45:38.953Z,4.00
2018-09-06T01:47:12.149Z,4.00
2018-09-06T01:47:38.923Z,4.00
2018-09-06T01:48:38.907Z,4.00
2018-09-06T01:49:38.894Z,4.00
2018-09-06T01:50:38.875Z,4.00
2018-09-06T01:51:38.860Z,4.00
2018-09-06T01:52:38.856Z,4.00
2018-09-06T01:53:38.835Z,4.00
2018-09-06T01:54:38.816Z,4.00
2018-09-06T01:55:38.802Z,4.00
2018-09-06T01:56:38.795Z,4.00
2018-09-06T01:57:38.774Z,4.00
2018-09-06T01:58:38.762Z,4.00
2018-09-06T02:00:11.950Z,4.00
2018-09-06T02:00:38.737Z,4.00
2018-09-06T02:03:23.457Z,4.00
2018-09-06T02:04:23.456Z,4.00
2018-09-06T02:05:56.636Z,4.00
2018-09-06T02:06:23.412Z,4.00
2018-09-06T02:07:23.398Z,4.00
2018-09-06T02:08:23.389Z,4.00
2018-09-06T02:09:23.368Z,4.00
2018-09-06T02:10:23.353Z,4.00
2018-09-06T02:11:23.344Z,4.00
2018-09-06T02:12:23.325Z,4.00
2018-09-06T02:13:23.305Z,4.00
2018-09-06T02:14:23.289Z,4.00
2018-09-06T02:15:23.279Z,4.00
2018-09-06T02:16:23.258Z,4.00
2018-09-06T02:17:23.246Z,4.00
2018-09-06T02:18:23.228Z,4.00
2018-09-06T02:19:56.423Z,4.00
2018-09-06T02:20:23.196Z,4.00
2018-09-06T02:23:08.939Z,4.00
2018-09-06T02:25:54.017Z,4.00
2018-09-06T02:28:39.100Z,4.00
2018-09-06T02:31:24.184Z,4.00
2018-09-06T02:34:09.319Z,4.00
2018-09-06T02:36:54.355Z,4.00
2018-09-06T02:39:39.336Z,4.00
2018-09-06T02:42:24.469Z,4.00
2018-09-06T02:45:09.503Z,4.00
2018-09-06T02:47:54.583Z,4.00
2018-09-06T02:50:39.679Z,4.00
2018-09-06T02:53:24.806Z,4.00
2018-09-06T02:56:09.834Z,4.00
2018-09-06T02:58:55.070Z,4.00
2018-09-06T03:01:40.006Z,4.00
2018-09-06T03:04:25.105Z,4.00
2018-09-06T03:07:10.122Z,4.00
2018-09-06T03:09:55.155Z,4.00
2018-09-06T03:12:40.289Z,4.00
2018-09-06T03:15:25.414Z,4.00
2018-09-06T03:18:10.410Z,4.00
2018-09-06T03:20:55.494Z,4.00
2018-09-06T03:23:40.572Z,4.00
2018-09-06T03:26:25.759Z,4.00
2018-09-06T03:29:10.638Z,4.00
2018-09-06T03:31:55.775Z,4.00
2018-09-06T03:34:40.805Z,4.00
2018-09-06T03:37:25.887Z,4.00
2018-09-06T03:40:10.973Z,4.00
2018-09-06T03:42:56.061Z,4.00
2018-09-06T03:45:41.090Z,4.00
2018-09-06T03:48:26.174Z,4.00
2018-09-06T03:49:59.368Z,4.00
2018-09-06T03:50:26.143Z,4.00
2018-09-06T03:51:59.345Z,4.00
2018-09-06T03:52:26.118Z,4.00
2018-09-06T03:53:26.104Z,4.00
2018-09-06T03:54:26.080Z,4.00
2018-09-06T03:55:26.067Z,4.00
2018-09-06T03:56:26.049Z,4.00
2018-09-06T03:57:26.031Z,4.00
2018-09-06T03:58:26.023Z,4.00
2018-09-06T03:59:26.005Z,4.00
2018-09-06T04:01:59.741Z,4.00
2018-09-06T04:05:07.012Z,4.00
2018-09-06T04:07:33.636Z,4.00
2018-09-06T04:08:33.621Z,4.00
2018-09-06T04:09:33.604Z,4.00
2018-09-06T04:10:33.589Z,4.00
2018-09-06T04:11:33.573Z,4.00
2018-09-06T04:12:33.556Z,4.00
2018-09-06T04:13:33.640Z,8.00
2018-09-06T04:14:33.531Z,8.00
2018-09-06T04:15:33.511Z,4.00
2018-09-06T04:16:33.495Z,4.00
2018-09-06T04:17:33.477Z,8.00
2018-09-06T04:18:33.527Z,8.00
2018-09-06T04:19:33.446Z,8.00
2018-09-06T04:20:33.437Z,8.00
2018-09-06T04:21:33.413Z,8.00
2018-09-06T04:22:33.396Z,12.00
2018-09-06T04:23:33.386Z,12.00
2018-09-06T04:24:33.367Z,12.00
2018-09-06T04:25:33.350Z,16.00
2018-09-06T04:26:33.336Z,20.00
2018-09-06T04:27:33.317Z,20.00
2018-09-06T04:28:33.314Z,20.00
2018-09-06T04:29:33.328Z,24.00
2018-09-06T04:30:33.269Z,28.00
2018-09-06T04:31:37.298Z,28.00
2018-09-06T04:32:33.238Z,36.00
2018-09-06T04:36:20.449Z,60.00
2018-09-06T04:41:01.533Z,104.00
2018-09-06T04:56:51.890Z,572.00
2018-09-06T04:57:51.870Z,624.00
2018-09-06T04:58:51.855Z,676.00
2018-09-06T04:59:51.838Z,732.00
2018-09-06T05:00:51.822Z,788.00
2018-09-06T05:01:51.810Z,848.00
2018-09-06T05:02:51.786Z,912.00
2018-09-06T05:03:51.768Z,980.00
2018-09-06T05:04:51.754Z,1044.00
2018-09-06T05:05:51.751Z,1112.00
2018-09-06T05:06:51.722Z,1176.00
2018-09-06T05:07:51.703Z,1252.00
2018-09-06T05:08:51.687Z,1324.00
2018-09-06T05:09:51.671Z,1404.00
2018-09-06T05:10:51.656Z,1484.00
2018-09-06T05:11:51.637Z,1564.00
2018-09-06T05:12:51.629Z,1648.00
2018-09-06T05:13:51.620Z,1736.00
2018-09-06T05:14:51.588Z,1828.00
2018-09-06T05:15:51.572Z,1924.00
2018-09-06T05:16:51.558Z,2024.00
2018-09-06T05:18:24.753Z,2128.00
2018-09-06T05:18:51.524Z,2196.00
2018-09-06T05:19:51.523Z,2292.00
2018-09-06T05:20:51.492Z,2400.00
2018-09-06T05:21:51.540Z,2512.00
2018-09-06T05:22:51.514Z,2632.00
2018-09-06T05:23:51.444Z,2784.00
2018-09-06T05:24:51.437Z,2964.00
2018-09-06T05:26:40.696Z,3232.00
2018-09-06T05:34:57.933Z,4116.00
2018-09-06T05:35:57.930Z,4180.00
2018-09-06T05:36:57.880Z,4272.00
2018-09-06T05:37:57.865Z,4344.00
2018-09-06T05:38:57.843Z,4380.00
2018-09-06T05:39:57.829Z,4376.00
2018-09-06T05:40:57.818Z,4376.00
2018-09-06T05:41:57.802Z,4392.00
2018-09-06T05:42:57.781Z,4412.00
2018-09-06T05:43:57.765Z,4380.00
2018-09-06T05:44:57.810Z,4264.00
2018-09-06T05:45:57.735Z,3944.00
2018-09-06T05:46:57.723Z,3524.00
2018-09-06T05:47:57.711Z,3176.00
2018-09-06T05:48:57.689Z,2964.00
2018-09-06T05:49:57.672Z,2804.00
2018-09-06T05:50:57.657Z,2668.00
2018-09-06T05:51:57.643Z,2540.00
2018-09-06T05:52:57.631Z,2424.00
2018-09-06T05:53:57.617Z,2300.00
2018-09-06T05:54:57.597Z,2172.00
2018-09-06T05:56:30.848Z,2048.00
2018-09-06T05:56:57.575Z,1916.00
2018-09-06T05:57:57.584Z,1808.00
2018-09-06T05:58:57.539Z,1720.00
2018-09-06T05:59:57.543Z,1660.00
2018-09-06T06:00:57.506Z,1656.00
2018-09-06T06:01:57.496Z,1700.00
2018-09-06T06:02:57.477Z,1816.00
2018-09-06T06:03:57.463Z,1980.00
2018-09-06T06:04:57.453Z,2156.00
2018-09-06T06:05:57.431Z,2356.00
2018-09-06T06:06:57.416Z,2560.00
2018-09-06T06:07:57.405Z,2756.00
2018-09-06T06:08:57.391Z,2900.00
2018-09-06T06:09:57.377Z,2916.00
2018-09-06T06:10:57.359Z,2836.00
2018-09-06T06:11:57.496Z,2764.00
2018-09-06T06:12:57.325Z,2676.00
2018-09-06T06:13:57.315Z,2600.00
2018-09-06T06:14:57.297Z,2532.00
2018-09-06T06:15:57.289Z,2492.00
2018-09-06T06:16:57.265Z,2476.00
2018-09-06T06:17:57.252Z,2472.00
2018-09-06T06:18:57.235Z,2536.00
2018-09-06T06:19:57.301Z,2676.00
2018-09-06T06:20:57.216Z,2908.00
2018-09-06T06:21:57.208Z,3168.00
2018-09-06T06:22:57.177Z,3464.00
2018-09-06T06:23:57.162Z,3792.00
2018-09-06T06:24:57.145Z,4100.00
2018-09-06T06:25:57.176Z,4456.00
2018-09-06T06:26:57.115Z,4892.00
2018-09-06T06:27:57.104Z,5376.00
2018-09-06T06:28:57.085Z,5804.00
2018-09-06T06:29:57.070Z,6108.00
2018-09-06T06:30:57.105Z,6392.00
2018-09-06T06:31:57.060Z,6616.00
2018-09-06T06:32:57.034Z,6808.00
2018-09-06T06:33:57.021Z,7024.00
2018-09-06T06:34:56.994Z,7340.00
2018-09-06T06:35:56.987Z,7620.00
2018-09-06T06:36:56.974Z,7908.00
2018-09-06T06:37:56.955Z,8248.00
2018-09-06T06:38:56.993Z,8780.00
2018-09-06T06:39:57.043Z,9312.00
2018-09-06T06:40:56.908Z,9784.00
2018-09-06T06:41:56.896Z,10120.00
2018-09-06T06:42:56.994Z,10428.00
2018-09-06T06:43:56.867Z,10784.00
2018-09-06T06:44:56.854Z,10944.00
2018-09-06T06:45:56.835Z,11080.00
2018-09-06T06:46:56.820Z,11096.00
2018-09-06T06:47:56.814Z,11032.00
2018-09-06T06:48:56.791Z,11092.00
2018-09-06T06:49:56.777Z,11388.00
2018-09-06T06:50:56.771Z,11536.00
2018-09-06T06:51:56.751Z,11576.00
2018-09-06T06:52:56.741Z,11684.00
2018-09-06T06:53:56.736Z,11696.00
2018-09-06T06:54:56.708Z,11656.00
2018-09-06T06:55:56.701Z,11400.00
2018-09-06T06:56:56.678Z,11088.00
2018-09-06T06:57:56.674Z,10960.00
2018-09-06T06:58:56.652Z,10936.00
2018-09-06T06:59:56.637Z,11036.00
2018-09-06T07:00:56.689Z,11132.00
2018-09-06T07:01:56.611Z,11332.00
2018-09-06T07:02:56.599Z,11488.00
2018-09-06T07:03:56.583Z,11580.00
2018-09-06T07:04:56.571Z,11652.00
2018-09-06T07:05:56.555Z,11644.00
2018-09-06T07:06:56.711Z,11592.00
2018-09-06T07:07:56.529Z,11756.00
2018-09-06T07:08:56.515Z,12000.00
2018-09-06T07:09:56.519Z,12404.00
2018-09-06T07:10:56.484Z,12896.00
2018-09-06T07:11:56.472Z,13448.00
2018-09-06T07:12:56.465Z,13752.00
2018-09-06T07:13:56.504Z,14144.00
2018-09-06T07:14:56.432Z,14732.00
2018-09-06T07:15:56.430Z,15292.00
2018-09-06T07:16:56.430Z,15568.00
2018-09-06T07:17:56.397Z,16200.00
2018-09-06T07:18:56.378Z,16736.00
2018-09-06T07:19:56.366Z,17184.00
2018-09-06T07:20:56.352Z,17376.00
2018-09-06T07:21:56.339Z,17536.00
2018-09-06T07:22:56.329Z,17728.00
2018-09-06T07:23:56.324Z,17888.00
2018-09-06T07:24:56.300Z,18368.00
2018-09-06T07:25:56.291Z,17888.00
2018-09-06T07:26:56.302Z,17984.00
2018-09-06T07:27:56.260Z,17952.00
2018-09-06T07:28:56.250Z,18656.00
2018-09-06T07:29:56.241Z,17920.00
2018-09-06T07:30:56.337Z,17568.00
2018-09-06T07:31:56.214Z,17408.00
2018-09-06T07:32:56.205Z,17216.00
2018-09-06T07:33:56.319Z,18144.00
2018-09-06T07:34:56.173Z,17568.00
2018-09-06T07:35:56.283Z,17792.00
2018-09-06T07:36:56.147Z,17440.00
2018-09-06T07:37:56.138Z,17248.00
2018-09-06T07:38:56.142Z,19360.00
2018-09-06T07:39:56.114Z,17536.00
2018-09-06T07:40:56.097Z,17472.00
2018-09-06T07:41:56.085Z,17856.00
2018-09-06T07:42:56.075Z,17888.00
2018-09-06T07:43:56.062Z,17824.00
2018-09-06T07:44:56.051Z,17600.00
2018-09-06T07:45:56.038Z,16348.00
2018-09-06T07:46:56.083Z,17824.00
2018-09-06T07:47:56.013Z,15456.00
2018-09-06T07:48:56.004Z,14716.00
2018-09-06T07:49:56.034Z,14224.00
2018-09-06T07:50:55.981Z,13632.00
2018-09-06T07:51:55.965Z,12992.00
2018-09-06T07:52:55.964Z,12524.00
2018-09-06T07:53:55.952Z,12148.00
2018-09-06T07:54:55.932Z,11868.00
2018-09-06T07:55:55.921Z,11492.00
2018-09-06T07:56:55.904Z,11172.00
2018-09-06T07:57:55.900Z,10792.00
2018-09-06T07:58:55.882Z,10388.00
2018-09-06T07:59:55.871Z,10076.00
2018-09-06T08:00:55.908Z,9832.00
2018-09-06T08:01:55.849Z,9688.00
2018-09-06T08:02:55.844Z,9636.00
2018-09-06T08:03:55.827Z,9672.00
2018-09-06T08:04:55.812Z,10560.00
2018-09-06T08:05:55.809Z,10232.00
2018-09-06T08:06:56.003Z,10212.00
2018-09-06T08:07:55.783Z,10092.00
2018-09-06T08:08:55.765Z,9992.00
2018-09-06T08:09:55.756Z,9844.00
2018-09-06T08:10:55.737Z,9740.00
2018-09-06T08:11:55.765Z,9684.00
2018-09-06T08:12:55.713Z,9652.00
2018-09-06T08:13:55.710Z,9628.00
2018-09-06T08:14:55.691Z,9584.00
2018-09-06T08:15:55.678Z,9520.00
2018-09-06T08:16:55.815Z,9432.00
2018-09-06T08:17:55.660Z,9368.00
2018-09-06T08:18:55.699Z,9316.00
2018-09-06T08:19:55.647Z,9220.00
2018-09-06T08:20:55.615Z,9096.00
2018-09-06T08:21:55.608Z,8976.00
2018-09-06T08:22:55.591Z,8876.00
2018-09-06T08:23:55.581Z,8780.00
2018-09-06T08:24:55.566Z,8712.00
2018-09-06T08:25:55.553Z,8632.00
2018-09-06T08:26:55.544Z,8524.00
2018-09-06T08:27:55.549Z,8348.00
2018-09-06T08:28:55.518Z,8148.00
2018-09-06T08:29:55.514Z,7940.00
2018-09-06T08:30:55.682Z,7752.00
2018-09-06T08:31:55.480Z,7616.00
2018-09-06T08:32:55.469Z,7508.00
2018-09-06T08:33:55.456Z,7460.00
2018-09-06T08:34:55.448Z,7460.00
2018-09-06T08:35:55.445Z,7504.00
2018-09-06T08:36:55.426Z,7600.00
2018-09-06T08:37:55.413Z,7736.00
2018-09-06T08:38:55.405Z,7932.00
2018-09-06T08:39:55.395Z,8200.00
2018-09-06T08:40:55.369Z,8584.00
2018-09-06T08:41:55.365Z,9016.00
2018-09-06T08:42:55.344Z,9448.00
2018-09-06T08:43:55.333Z,9856.00
2018-09-06T08:44:55.319Z,10160.00
2018-09-06T08:45:55.307Z,10360.00
2018-09-06T08:46:55.305Z,10444.00
2018-09-06T08:47:55.283Z,10424.00
2018-09-06T08:48:55.282Z,10328.00
2018-09-06T08:49:55.256Z,10184.00
2018-09-06T08:50:55.244Z,10016.00
2018-09-06T08:51:55.238Z,9832.00
2018-09-06T08:52:55.219Z,9616.00
2018-09-06T08:53:55.207Z,9432.00
2018-09-06T08:54:55.197Z,9288.00
2018-09-06T08:55:55.183Z,9184.00
2018-09-06T08:56:55.169Z,9100.00
2018-09-06T08:57:55.157Z,9008.00
2018-09-06T08:58:55.151Z,8852.00
2018-09-06T08:59:55.143Z,8616.00
2018-09-06T09:00:55.129Z,8384.00
2018-09-06T09:01:55.108Z,8172.00
2018-09-06T09:02:55.214Z,8012.00
2018-09-06T09:03:55.084Z,7856.00
2018-09-06T09:04:55.071Z,7740.00
2018-09-06T09:05:55.105Z,7656.00
2018-09-06T09:06:55.054Z,7632.00
2018-09-06T09:07:55.048Z,7696.00
2018-09-06T09:08:55.072Z,7808.00
2018-09-06T09:09:55.019Z,7952.00
2018-09-06T09:10:54.997Z,8088.00
2018-09-06T09:11:54.984Z,8224.00
2018-09-06T09:12:55.040Z,8376.00
2018-09-06T09:13:54.967Z,8568.00
2018-09-06T09:14:54.948Z,8788.00
2018-09-06T09:15:54.935Z,9020.00
2018-09-06T09:16:54.941Z,9320.00
2018-09-06T09:17:54.910Z,9628.00
2018-09-06T09:18:54.896Z,9924.00
2018-09-06T09:19:54.885Z,10104.00
2018-09-06T09:20:54.872Z,10112.00
2018-09-06T09:21:54.881Z,9960.00
2018-09-06T09:22:54.849Z,9668.00
2018-09-06T09:23:54.839Z,9328.00
2018-09-06T09:24:54.827Z,9008.00
2018-09-06T09:25:54.821Z,8720.00
2018-09-06T09:26:54.797Z,8468.00
2018-09-06T09:27:54.785Z,8260.00
2018-09-06T09:28:54.773Z,8128.00
2018-09-06T09:29:54.910Z,8084.00
2018-09-06T09:30:54.748Z,8116.00
2018-09-06T09:31:54.744Z,8148.00
2018-09-06T09:32:54.730Z,8148.00
2018-09-06T09:33:54.716Z,8104.00
2018-09-06T09:34:54.708Z,8044.00
2018-09-06T09:35:54.722Z,8072.00
2018-09-06T09:36:54.673Z,8208.00
2018-09-06T09:37:54.660Z,8356.00
2018-09-06T09:38:54.647Z,8448.00
2018-09-06T09:39:54.637Z,8492.00
2018-09-06T09:40:54.623Z,8448.00
2018-09-06T09:41:54.619Z,8344.00
2018-09-06T09:42:54.598Z,8296.00
2018-09-06T09:43:54.587Z,8268.00
2018-09-06T09:44:54.576Z,8196.00
2018-09-06T09:47:57.324Z,8012.00
2018-09-06T09:48:57.313Z,7908.00
2018-09-06T09:49:57.300Z,7696.00
2018-09-06T09:50:57.292Z,7432.00
2018-09-06T09:51:57.277Z,7212.00
2018-09-06T09:52:57.262Z,7084.00
2018-09-06T09:53:57.250Z,7076.00
2018-09-06T09:54:57.238Z,7244.00
2018-09-06T09:55:57.233Z,7552.00
2018-09-06T09:56:57.272Z,7896.00
2018-09-06T09:57:57.204Z,8188.00
2018-09-06T09:58:57.193Z,8404.00
2018-09-06T09:59:57.174Z,8524.00
2018-09-06T10:00:57.177Z,8520.00
2018-09-06T10:01:57.157Z,8456.00
2018-09-06T10:02:57.135Z,8376.00
2018-09-06T10:03:57.127Z,8208.00
2018-09-06T10:04:57.110Z,7900.00
2018-09-06T10:05:57.097Z,7512.00
2018-09-06T10:06:57.084Z,7064.00
2018-09-06T10:07:57.078Z,6616.00
2018-09-06T10:08:57.061Z,6288.00
2018-09-06T10:09:57.047Z,6128.00
2018-09-06T10:10:57.043Z,6092.00
2018-09-06T10:11:57.022Z,6168.00
2018-09-06T10:12:57.009Z,6264.00
2018-09-06T10:13:56.998Z,6308.00
2018-09-06T10:14:56.987Z,6336.00
2018-09-06T10:15:56.979Z,6404.00
2018-09-06T10:16:56.962Z,6440.00
2018-09-06T10:17:56.947Z,6472.00
2018-09-06T10:18:56.938Z,6564.00
2018-09-06T10:19:56.929Z,6692.00
2018-09-06T10:20:56.920Z,6820.00
2018-09-06T10:21:56.896Z,6944.00
2018-09-06T10:22:56.887Z,7064.00
2018-09-06T10:23:56.870Z,7216.00
2018-09-06T10:24:56.867Z,7460.00
2018-09-06T10:25:56.845Z,7796.00
2018-09-06T10:26:56.844Z,8168.00
2018-09-06T10:27:56.820Z,8452.00
2018-09-06T10:28:56.823Z,8524.00
2018-09-06T10:29:56.798Z,8340.00
2018-09-06T10:30:56.792Z,7996.00
2018-09-06T10:31:56.769Z,7660.00
2018-09-06T10:32:56.772Z,7432.00
2018-09-06T10:33:56.746Z,7324.00
2018-09-06T10:34:56.731Z,7340.00
2018-09-06T10:35:56.719Z,7436.00
2018-09-06T10:36:56.708Z,7596.00
2018-09-06T10:37:56.692Z,7712.00
2018-09-06T10:38:56.679Z,7752.00
2018-09-06T10:39:56.747Z,7716.00
2018-09-06T10:40:56.658Z,7628.00
2018-09-06T10:41:56.647Z,7512.00
2018-09-06T10:42:56.679Z,7392.00
2018-09-06T10:43:56.617Z,7244.00
2018-09-06T10:44:56.604Z,7112.00
2018-09-06T10:45:56.599Z,6984.00
2018-09-06T10:46:56.578Z,6892.00
2018-09-06T10:47:56.681Z,6816.00
2018-09-06T10:48:56.560Z,6764.00
2018-09-06T10:49:56.537Z,6732.00
2018-09-06T10:50:56.540Z,6756.00
2018-09-06T10:51:56.517Z,6812.00
2018-09-06T10:52:56.508Z,6920.00
2018-09-06T10:53:56.496Z,7096.00
2018-09-06T10:54:56.475Z,7276.00
2018-09-06T10:55:56.462Z,7428.00
2018-09-06T10:56:56.457Z,7544.00
2018-09-06T10:57:56.437Z,7612.00
2018-09-06T10:58:56.427Z,7640.00
2018-09-06T10:59:56.421Z,7640.00
2018-09-06T11:00:56.398Z,7576.00
2018-09-06T11:01:56.383Z,7428.00
2018-09-06T11:02:56.379Z,7216.00
2018-09-06T11:03:56.358Z,6968.00
2018-09-06T11:04:56.350Z,6672.00
2018-09-06T11:05:56.333Z,6324.00
2018-09-06T11:06:56.319Z,5984.00
2018-09-06T11:07:56.381Z,5680.00
2018-09-06T11:08:56.297Z,5436.00
2018-09-06T11:09:56.289Z,5252.00
2018-09-06T11:10:56.267Z,5052.00
2018-09-06T11:11:56.255Z,4788.00
2018-09-06T11:12:56.242Z,4504.00
2018-09-06T11:13:56.232Z,4292.00
2018-09-06T11:14:56.234Z,4160.00
2018-09-06T11:15:56.206Z,4072.00
2018-09-06T11:16:56.202Z,4004.00
2018-09-06T11:17:56.185Z,3928.00
2018-09-06T11:18:56.165Z,3868.00
2018-09-06T11:19:56.150Z,3812.00
2018-09-06T11:20:56.164Z,3780.00
2018-09-06T11:21:56.370Z,3772.00
2018-09-06T11:22:56.115Z,3772.00
2018-09-06T11:23:56.308Z,3816.00
2018-09-06T11:24:56.084Z,3840.00
2018-09-06T11:25:56.076Z,3812.00
2018-09-06T11:26:56.062Z,3708.00
2018-09-06T11:27:56.092Z,3576.00
2018-09-06T11:28:56.039Z,3440.00
2018-09-06T11:29:56.015Z,3312.00
2018-09-06T11:30:56.002Z,3232.00
2018-09-06T11:31:55.989Z,3192.00
2018-09-06T11:32:55.977Z,3176.00
2018-09-06T11:33:55.969Z,3164.00
2018-09-06T11:34:55.950Z,3180.00
2018-09-06T11:35:55.943Z,3204.00
2018-09-06T11:36:55.922Z,3224.00
2018-09-06T11:37:55.908Z,3248.00
2018-09-06T11:38:55.895Z,3260.00
2018-09-06T11:39:55.892Z,3276.00
2018-09-06T11:40:55.868Z,3292.00
2018-09-06T11:41:55.853Z,3300.00
2018-09-06T11:42:55.840Z,3312.00
2018-09-06T11:43:55.826Z,3312.00
2018-09-06T11:44:55.829Z,3288.00
2018-09-06T11:45:55.798Z,3272.00
2018-09-06T11:46:55.928Z,3280.00
2018-09-06T11:47:55.787Z,3288.00
2018-09-06T11:48:55.759Z,3316.00
2018-09-06T11:49:55.744Z,3332.00
2018-09-06T11:50:55.735Z,3356.00
2018-09-06T11:51:55.724Z,3372.00
2018-09-06T11:52:55.713Z,3404.00
2018-09-06T11:53:55.692Z,3428.00
2018-09-06T11:54:55.677Z,3492.00
2018-09-06T11:55:55.714Z,3508.00
2018-09-06T11:56:55.650Z,3528.00
2018-09-06T11:57:55.636Z,3512.00
2018-09-06T11:58:55.636Z,3508.00
2018-09-06T11:59:55.621Z,3432.00
2018-09-06T12:00:55.654Z,3412.00
2018-09-06T12:01:55.591Z,3468.00
2018-09-06T12:02:55.570Z,3428.00
2018-09-06T12:03:55.553Z,3352.00
2018-09-06T12:04:55.539Z,3296.00
2018-09-06T12:05:55.528Z,3240.00
2018-09-06T12:06:55.509Z,3188.00
2018-09-06T12:07:55.499Z,3124.00
2018-09-06T12:08:55.487Z,3092.00
2018-09-06T12:09:55.471Z,3120.00
2018-09-06T12:10:55.458Z,3136.00
2018-09-06T12:11:55.444Z,3152.00
2018-09-06T12:12:55.428Z,3148.00
2018-09-06T12:13:55.415Z,3304.00
2018-09-06T12:14:55.399Z,3444.00
2018-09-06T12:15:55.386Z,3516.00
2018-09-06T12:16:55.370Z,3792.00
2018-09-06T12:17:55.357Z,4100.00
2018-09-06T12:18:55.343Z,4420.00
2018-09-06T12:19:55.360Z,4768.00
2018-09-06T12:20:55.316Z,5164.00
2018-09-06T12:21:55.309Z,5580.00
2018-09-06T12:22:55.294Z,6000.00
2018-09-06T12:23:55.275Z,6360.00
2018-09-06T12:24:55.273Z,6700.00
2018-09-06T12:25:55.252Z,7004.00
2018-09-06T12:26:55.248Z,7276.00
2018-09-06T12:27:55.222Z,7516.00
2018-09-06T12:28:55.214Z,7704.00
2018-09-06T12:29:55.193Z,7856.00
2018-09-06T12:30:55.192Z,7960.00
2018-09-06T12:31:55.171Z,8000.00
2018-09-06T12:32:55.149Z,8064.00
2018-09-06T12:33:55.139Z,8188.00
2018-09-06T12:34:55.125Z,8312.00
2018-09-06T12:35:55.243Z,8376.00
2018-09-06T12:36:55.094Z,8396.00
2018-09-06T12:37:55.089Z,8376.00
2018-09-06T12:38:55.118Z,8292.00
2018-09-06T12:39:55.061Z,8152.00
2018-09-06T12:40:55.042Z,8044.00
2018-09-06T12:41:55.033Z,7944.00
2018-09-06T12:42:55.018Z,7896.00
2018-09-06T12:43:55.006Z,7904.00
2018-09-06T12:44:54.991Z,7932.00
2018-09-06T12:45:54.973Z,8040.00
2018-09-06T12:46:54.966Z,8112.00
2018-09-06T12:47:54.946Z,8092.00
2018-09-06T12:48:54.938Z,8052.00
2018-09-06T12:49:54.915Z,8004.00
2018-09-06T12:50:54.928Z,7908.00
2018-09-06T12:51:54.890Z,7696.00
2018-09-06T12:52:54.882Z,7536.00
2018-09-06T12:53:54.863Z,7792.00
2018-09-06T12:54:54.996Z,7920.00
2018-09-06T12:55:54.834Z,8184.00
2018-09-06T12:56:54.825Z,8328.00
2018-09-06T12:57:54.844Z,8320.00
2018-09-06T12:58:55.000Z,8644.00
2018-09-06T12:59:54.798Z,8764.00
2018-09-06T13:00:54.771Z,8808.00
2018-09-06T13:01:54.761Z,8980.00
2018-09-06T13:02:54.742Z,9472.00
2018-09-06T13:03:54.730Z,9656.00
2018-09-06T13:04:54.712Z,10036.00
2018-09-06T13:05:54.701Z,9936.00
2018-09-06T13:06:54.685Z,10368.00
2018-09-06T13:07:54.679Z,11204.00
2018-09-06T13:08:54.659Z,11472.00
2018-09-06T13:09:54.653Z,11260.00
2018-09-06T13:10:54.676Z,10560.00
2018-09-06T13:11:54.622Z,10668.00
2018-09-06T13:12:54.604Z,10564.00
2018-09-06T13:13:54.593Z,10368.00
2018-09-06T13:14:54.600Z,10264.00
2018-09-06T13:15:54.572Z,9924.00
2018-09-06T13:16:54.553Z,9756.00
2018-09-06T13:17:54.537Z,9728.00
2018-09-06T13:18:54.660Z,9688.00
2018-09-06T13:19:54.511Z,9860.00
2018-09-06T13:20:54.499Z,10144.00
2018-09-06T13:21:54.485Z,10476.00
2018-09-06T13:22:54.471Z,10812.00
2018-09-06T13:23:54.459Z,10880.00
2018-09-06T13:24:54.451Z,11504.00
2018-09-06T13:25:54.442Z,12020.00
2018-09-06T13:26:54.419Z,12236.00
2018-09-06T13:27:54.412Z,12288.00
2018-09-06T13:28:54.402Z,12320.00
2018-09-06T13:29:54.387Z,12220.00
2018-09-06T13:30:54.368Z,12240.00
2018-09-06T13:31:54.354Z,12228.00
2018-09-06T13:32:54.343Z,12284.00
2018-09-06T13:33:54.328Z,11976.00
2018-09-06T13:34:54.313Z,12300.00
2018-09-06T13:35:54.318Z,12796.00
2018-09-06T13:36:54.293Z,12520.00
2018-09-06T13:37:54.332Z,13100.00
2018-09-06T13:38:54.265Z,13112.00
2018-09-06T13:39:54.252Z,12968.00
2018-09-06T13:40:54.238Z,12820.00
2018-09-06T13:41:54.229Z,12404.00
2018-09-06T13:42:54.221Z,12004.00
2018-09-06T13:43:54.212Z,11888.00
2018-09-06T13:44:54.192Z,11640.00
2018-09-06T13:45:54.178Z,11628.00
2018-09-06T13:46:54.167Z,11108.00
2018-09-06T13:47:54.155Z,11464.00
2018-09-06T13:48:54.147Z,11964.00
2018-09-06T13:49:54.126Z,12492.00
2018-09-06T13:50:54.113Z,12568.00
2018-09-06T13:51:54.099Z,12532.00
2018-09-06T13:52:54.086Z,12792.00
2018-09-06T13:53:54.082Z,12812.00
2018-09-06T13:54:54.069Z,12836.00
2018-09-06T13:55:54.048Z,12832.00
2018-09-06T13:56:54.137Z,13040.00
2018-09-06T13:57:54.023Z,13148.00
2018-09-06T13:58:54.013Z,13376.00
2018-09-06T13:59:54.015Z,13672.00
2018-09-06T14:00:53.992Z,14016.00
2018-09-06T14:01:53.996Z,14544.00
2018-09-06T14:02:53.984Z,14388.00